Airfield :
LOGIN :

Register | Disclaimer

   EN    FR    IT 

 










Legend :    VFR   Marginal VFR   IFR   Intensive IFR   Very Intensive IFR
Visi :
Ceiling :
>= 8 km
>= 3000ft
5 to 8 km
1000 to 3000 ft
1500m to 5 km
500 to 1000 ft
800 to 1500m
200 to 500 ft
< 800m
< 200 ft
Symbols :   Thunderstorms  Fog  Heavy snow  Heavy precipitations  Wind > 20 kt
SIGMETs :     Misc.  Thunderstorms  Icing  Turbulence  Mountain Waves  Volcanic Ashes






- Airport Elevation : 55 ft
- IATA code : DSA


EGCN - Robin Hood Doncaster Sheffield

CURRENT METAR :
  • 150950Z 32005KT 270V020 CAVOK 23/14 Q1002

EXPIRED METARs :
  • 150920Z 34005KT 300V030 CAVOK 22/15 Q1002
  • 150850Z 32005KT 280V350 7000 NSC 20/15 Q1003
  • 150820Z 31003KT 270V350 6000 NSC 19/15 Q1002
  • 150750Z 29004KT 250V050 6000 NSC 18/15 Q1002
  • 150720Z 31005KT 270V330 6000 NSC 17/15 Q1002
  • 150650Z 32004KT 5000 HZ NSC 16/15 Q1002

TAF TAF EGCN
Valid from the 15 at 06:00 until the 16 at 06:00 UTC


150458Z 1506/1606 VRB03KT CAVOK
PROB40 1506/1509 4000 BR
BECMG 1509/1512 29010KT
TEMPO 1512/1603 7000 SHRA
PROB30
TEMPO 1513/1524 4000 +TSRAGR BKN045CB



MET'MAP, your aeronautical weather chart ! - Copyright ORBIFLY December 2007 - Disclaimer

ORBIFLY MET'MAP TEAM :

Programming & Development : Alexandra Zaïnal
Original concept : Baudouin d'Aumeries
Technical & hardware support : Manuel Goepfert
Assistance : Marc-Olivier Méhu




SOURCES & CREDITS :

   NOAA